createdAt,value
2018-06-19T00:00:43.139Z,96313.30
2018-06-19T00:03:12.266Z,96303.55
2018-06-19T00:05:41.386Z,96306.79
2018-06-19T00:08:10.677Z,96316.78
2018-06-19T00:10:39.785Z,96316.25
2018-06-19T00:13:08.904Z,96317.89
2018-06-19T00:15:38.049Z,96309.78
2018-06-19T00:18:14.388Z,96309.03
2018-06-19T00:20:43.520Z,96310.38
2018-06-19T00:23:12.693Z,96309.28
2018-06-19T00:25:41.805Z,96310.91
2018-06-19T00:28:10.936Z,96308.49
2018-06-19T00:30:40.073Z,96309.84
2018-06-19T00:33:09.185Z,96305.81
2018-06-19T00:35:38.297Z,96317.98
2018-06-19T00:38:07.430Z,96314.50
2018-06-19T00:40:36.544Z,96314.57
2018-06-19T00:43:05.836Z,96316.45
2018-06-19T00:45:34.961Z,96320.75
2018-06-19T00:48:04.097Z,96312.41
2018-06-19T00:50:33.293Z,96311.65
2018-06-19T00:53:02.417Z,96313.53
2018-06-19T00:55:31.566Z,96313.80
2018-06-19T00:58:00.741Z,96313.59
2018-06-19T01:00:29.860Z,96307.09
2018-06-19T01:02:58.992Z,96309.86
2018-06-19T01:05:28.104Z,96311.50
2018-06-19T01:07:57.242Z,96310.97
2018-06-19T01:10:26.388Z,96309.10
2018-06-19T01:12:55.513Z,96312.34
2018-06-19T01:15:24.634Z,96314.50
2018-06-19T01:17:53.757Z,96308.05
2018-06-19T01:20:23.125Z,96311.28
2018-06-19T01:22:52.246Z,96314.55
2018-06-19T01:25:21.369Z,96314.81
2018-06-19T01:27:50.586Z,96316.45
2018-06-19T01:30:22.681Z,96319.44
2018-06-19T01:32:51.817Z,96324.30
2018-06-19T01:35:20.929Z,96310.52
2018-06-19T01:37:50.045Z,96307.85
2018-06-19T01:40:19.181Z,96316.74
2018-06-19T01:42:48.311Z,96309.99
2018-06-19T01:45:17.427Z,96315.96
2018-06-19T01:47:46.553Z,96322.71
2018-06-19T01:50:15.699Z,96319.77
2018-06-19T01:52:44.809Z,96324.85
2018-06-19T01:55:13.938Z,96322.97
2018-06-19T01:57:43.089Z,96318.39
2018-06-19T02:00:12.216Z,96323.25
2018-06-19T02:02:41.353Z,96329.19
2018-06-19T02:05:10.473Z,96323.00
2018-06-19T02:07:39.601Z,96324.35
2018-06-19T02:10:08.721Z,96330.81
2018-06-19T02:12:37.845Z,96333.27
2018-06-19T02:15:07.086Z,96338.66
2018-06-19T02:17:36.207Z,96336.78
2018-06-19T02:20:06.206Z,96337.31
2018-06-19T02:22:35.338Z,96341.36
2018-06-19T02:25:04.481Z,96338.12
2018-06-19T02:27:33.822Z,96335.71
2018-06-19T02:30:02.950Z,96338.12
2018-06-19T02:32:32.065Z,96338.66
2018-06-19T02:35:01.195Z,96336.78
2018-06-19T02:37:30.322Z,96338.66
2018-06-19T02:39:59.449Z,96338.95
2018-06-19T02:42:28.709Z,96334.90
2018-06-19T02:44:57.837Z,96341.11
2018-06-19T02:47:26.969Z,96339.20
2018-06-19T02:49:56.105Z,96341.11
2018-06-19T02:52:25.249Z,96343.81
2018-06-19T02:54:54.526Z,96355.95
2018-06-19T02:57:23.705Z,96353.53
2018-06-19T02:59:52.879Z,96354.88
2018-06-19T03:02:22.282Z,96366.74
2018-06-19T03:04:51.409Z,96361.88
2018-06-19T03:07:20.533Z,96364.33
2018-06-19T03:09:49.774Z,96357.83
2018-06-19T03:12:18.889Z,96361.34
2018-06-19T03:14:48.006Z,96358.12
2018-06-19T03:17:18.125Z,96361.89
2018-06-19T03:19:47.242Z,96368.07
2018-06-19T03:22:16.378Z,96369.42
2018-06-19T03:24:45.515Z,96370.49
2018-06-19T03:27:14.636Z,96371.84
2018-06-19T03:29:43.753Z,96374.54
2018-06-19T03:32:12.889Z,96377.50
2018-06-19T03:34:42.270Z,96378.56
2018-06-19T03:37:11.385Z,96377.78
2018-06-19T03:39:40.505Z,96385.34
2018-06-19T03:42:09.632Z,96390.46
2018-06-19T03:44:38.753Z,96390.21
2018-06-19T03:47:07.933Z,96393.16
2018-06-19T03:49:37.081Z,96389.65
2018-06-19T03:52:06.461Z,96391.28
2018-06-19T03:54:35.585Z,96400.73
2018-06-19T03:57:04.825Z,96403.44
2018-06-19T03:59:34.009Z,96400.17
2018-06-19T04:02:03.200Z,96400.17
2018-06-19T04:04:32.334Z,96404.47
2018-06-19T04:07:01.449Z,96404.47
2018-06-19T04:09:30.576Z,96403.65
2018-06-19T04:11:59.813Z,96400.41
2018-06-19T04:14:28.953Z,96404.47
2018-06-19T04:16:58.073Z,96406.30
2018-06-19T04:19:27.243Z,96404.14
2018-06-19T04:21:56.504Z,96409.00
2018-06-19T04:24:25.622Z,96411.99
2018-06-19T04:26:55.007Z,96415.47
2018-06-19T04:29:24.141Z,96418.17
2018-06-19T04:31:53.273Z,96420.83
2018-06-19T04:34:22.405Z,96420.83
2018-06-19T04:36:51.525Z,96419.75
2018-06-19T04:39:20.670Z,96426.23
2018-06-19T04:41:49.861Z,96425.39
2018-06-19T04:44:18.977Z,96422.41
2018-06-19T04:46:47.994Z,96423.48
2018-06-19T04:49:17.108Z,96432.95
2018-06-19T04:51:46.222Z,96426.19
2018-06-19T04:54:15.346Z,96431.05
2018-06-19T04:56:44.551Z,96428.88
2018-06-19T04:59:13.679Z,96429.70
2018-06-19T05:01:42.809Z,96428.87
2018-06-19T05:04:12.053Z,96425.34
2018-06-19T05:06:41.189Z,96427.18
2018-06-19T05:09:12.789Z,96423.95
2018-06-19T05:11:43.085Z,96424.20
2018-06-19T05:14:12.499Z,96429.61
2018-06-19T05:16:42.220Z,96426.39
2018-06-19T05:19:11.737Z,96434.75
2018-06-19T05:21:40.639Z,96433.41
2018-06-19T05:24:09.866Z,96439.60
2018-06-19T05:26:39.238Z,96443.36
2018-06-19T05:29:08.345Z,96444.41
2018-06-19T05:31:37.465Z,96438.40
2018-06-19T05:34:06.622Z,96441.92
2018-06-19T05:36:35.775Z,96440.32
2018-06-19T05:39:08.947Z,96447.61
2018-06-19T05:41:38.417Z,96445.95
2018-06-19T05:44:08.124Z,96452.13
2018-06-19T05:46:37.672Z,96450.71
2018-06-19T05:49:07.057Z,96450.40
2018-06-19T05:51:36.177Z,96456.63
2018-06-19T05:54:05.301Z,96458.20
2018-06-19T05:56:34.439Z,96464.14
2018-06-19T05:59:03.565Z,96463.59
2018-06-19T06:01:32.811Z,96466.50
2018-06-19T06:04:01.913Z,96466.50
2018-06-19T06:06:31.144Z,96466.52
2018-06-19T06:09:00.253Z,96462.98
2018-06-19T06:11:29.722Z,96463.20
2018-06-19T06:13:58.845Z,96469.97
2018-06-19T06:16:28.026Z,96467.66
2018-06-19T06:18:57.108Z,96470.41
2018-06-19T06:21:26.237Z,96471.02
2018-06-19T06:23:55.373Z,96474.27
2018-06-19T06:26:24.516Z,96477.58
2018-06-19T06:28:53.686Z,96476.72
2018-06-19T06:31:23.049Z,96476.70
2018-06-19T06:33:52.131Z,96478.61
2018-06-19T06:36:21.276Z,96478.31
2018-06-19T06:38:50.425Z,96478.81
2018-06-19T06:41:19.537Z,96478.48
2018-06-19T06:43:49.069Z,96479.20
2018-06-19T06:46:18.211Z,96479.73
2018-06-19T06:48:47.328Z,96480.48
2018-06-19T06:51:16.461Z,96481.58
2018-06-19T06:53:45.577Z,96480.57
2018-06-19T06:56:14.701Z,96486.75
2018-06-19T06:58:43.822Z,96490.28
2018-06-19T07:01:12.947Z,96487.59
2018-06-19T07:03:41.948Z,96487.85
2018-06-19T07:06:10.852Z,96487.85
2018-06-19T07:08:39.986Z,96491.98
2018-06-19T07:11:09.128Z,96497.39
2018-06-19T07:13:38.270Z,96505.09
2018-06-19T07:16:07.397Z,96502.52
2018-06-19T07:18:36.588Z,96496.31
2018-06-19T07:21:05.765Z,96502.55
2018-06-19T07:23:34.877Z,96503.55
2018-06-19T07:26:04.039Z,96498.48
2018-06-19T07:28:33.125Z,96496.20
2018-06-19T07:31:02.333Z,96497.83
2018-06-19T07:33:31.488Z,96494.83
2018-06-19T07:36:00.635Z,96495.20
2018-06-19T07:38:29.753Z,96502.04
2018-06-19T07:40:59.096Z,96491.34
2018-06-19T07:43:28.218Z,96490.23
2018-06-19T07:45:57.341Z,96487.93
2018-06-19T07:48:26.506Z,96487.17
2018-06-19T07:50:55.632Z,96492.48
2018-06-19T07:53:24.772Z,96483.68
2018-06-19T07:55:53.906Z,96483.83
2018-06-19T07:58:23.036Z,96480.44
2018-06-19T08:00:52.161Z,96477.40
2018-06-19T08:03:21.309Z,96491.45
2018-06-19T08:05:50.441Z,96488.48
2018-06-19T08:08:19.580Z,96485.76
2018-06-19T08:10:48.706Z,96489.44
2018-06-19T08:13:17.855Z,96483.95
2018-06-19T08:15:46.977Z,96490.55
2018-06-19T08:18:16.108Z,96483.95
2018-06-19T08:20:45.250Z,96479.78
2018-06-19T08:23:14.405Z,96485.89
2018-06-19T08:25:44.386Z,96477.70
2018-06-19T08:28:13.620Z,96480.09
2018-06-19T08:30:42.753Z,96478.52
2018-06-19T08:33:11.889Z,96476.05
2018-06-19T08:35:41.006Z,96483.13
2018-06-19T08:38:10.158Z,96480.27
2018-06-19T08:40:39.309Z,96476.62
2018-06-19T08:43:08.425Z,96483.61
2018-06-19T08:45:37.575Z,96481.98
2018-06-19T08:48:06.775Z,96479.30
2018-06-19T08:50:35.833Z,96473.98
2018-06-19T08:53:04.961Z,96478.37
2018-06-19T08:55:34.090Z,96470.88
2018-06-19T08:58:03.357Z,96467.69
2018-06-19T09:00:32.482Z,96468.42
2018-06-19T09:03:01.631Z,96468.17
2018-06-19T09:05:30.996Z,96470.94
2018-06-19T09:08:00.139Z,96465.58
2018-06-19T09:10:29.264Z,96471.87
2018-06-19T09:12:58.593Z,96462.05
2018-06-19T09:15:27.718Z,96466.25
2018-06-19T09:17:56.918Z,96470.94
2018-06-19T09:20:26.052Z,96468.69
2018-06-19T09:22:55.173Z,96462.75
2018-06-19T09:25:24.305Z,96464.09
2018-06-19T09:27:53.682Z,96462.31
2018-06-19T09:30:22.817Z,96462.91
2018-06-19T09:32:51.937Z,96465.20
2018-06-19T09:35:21.080Z,96460.30
2018-06-19T09:37:50.274Z,96468.29
2018-06-19T09:40:19.665Z,96463.80
2018-06-19T09:42:48.801Z,96461.50
2018-06-19T09:45:17.911Z,96460.89
2018-06-19T09:47:47.053Z,96468.07
2018-06-19T09:50:16.178Z,96462.40
2018-06-19T09:52:45.337Z,96457.63
2018-06-19T09:55:14.464Z,96458.44
2018-06-19T09:57:43.580Z,96449.48
2018-06-19T10:00:16.833Z,96457.69
2018-06-19T10:02:45.973Z,96460.10
2018-06-19T10:05:15.112Z,96453.56
2018-06-19T10:07:44.246Z,96449.44
2018-06-19T10:10:13.625Z,96451.11
2018-06-19T10:12:42.767Z,96445.40
2018-06-19T10:15:11.886Z,96443.64
2018-06-19T10:17:41.013Z,96444.28
2018-06-19T10:20:10.170Z,96454.52
2018-06-19T10:22:39.382Z,96450.02
2018-06-19T10:25:08.682Z,96441.73
2018-06-19T10:27:37.797Z,96449.13
2018-06-19T10:30:06.913Z,96443.63
2018-06-19T10:32:36.070Z,96448.06
2018-06-19T10:35:05.291Z,96445.93
2018-06-19T10:37:34.385Z,96438.20
2018-06-19T10:40:03.570Z,96439.83
2018-06-19T10:42:32.693Z,96445.47
2018-06-19T10:45:01.825Z,96436.28
2018-06-19T10:47:30.953Z,96444.20
2018-06-19T10:50:00.082Z,96437.95
2018-06-19T10:52:29.218Z,96437.67
2018-06-19T10:54:58.345Z,96435.20
2018-06-19T10:57:27.476Z,96435.23
2018-06-19T10:59:56.864Z,96435.69
2018-06-19T11:02:25.990Z,96436.97
2018-06-19T11:04:55.166Z,96437.23
2018-06-19T11:07:30.920Z,96440.67
2018-06-19T11:10:01.625Z,96435.89
2018-06-19T11:12:30.749Z,96439.43
2018-06-19T11:14:59.873Z,96437.25
2018-06-19T11:17:28.997Z,96444.06
2018-06-19T11:19:58.140Z,96437.77
2018-06-19T11:22:27.253Z,96438.83
2018-06-19T11:24:56.918Z,96440.99
2018-06-19T11:27:26.194Z,96441.41
2018-06-19T11:29:55.341Z,96437.47
2018-06-19T11:32:24.449Z,96437.15
2018-06-19T11:34:53.629Z,96435.77
2018-06-19T11:37:22.779Z,96439.06
2018-06-19T11:39:51.908Z,96437.17
2018-06-19T11:42:21.045Z,96439.73
2018-06-19T11:44:50.165Z,96440.00
2018-06-19T11:47:19.290Z,96447.54
2018-06-19T11:49:48.469Z,96444.23
2018-06-19T11:52:17.613Z,96442.08
2018-06-19T11:54:46.972Z,96440.99
2018-06-19T11:57:16.122Z,96444.02
2018-06-19T11:59:45.278Z,96447.66
2018-06-19T12:02:14.170Z,96447.18
2018-06-19T12:04:43.314Z,96444.38
2018-06-19T12:07:12.449Z,96446.73
2018-06-19T12:09:41.569Z,96443.83
2018-06-19T12:12:10.694Z,96439.45
2018-06-19T12:14:39.810Z,96441.27
2018-06-19T12:17:08.946Z,96441.95
2018-06-19T12:19:38.082Z,96442.32
2018-06-19T12:22:07.257Z,96440.46
2018-06-19T12:24:36.377Z,96433.69
2018-06-19T12:27:06.333Z,96425.33
2018-06-19T12:29:35.555Z,96420.29
2018-06-19T12:32:04.861Z,96425.05
2018-06-19T12:34:33.999Z,96424.70
2018-06-19T12:37:03.121Z,96419.58
2018-06-19T12:39:32.273Z,96422.47
2018-06-19T12:42:01.418Z,96423.50
2018-06-19T12:44:30.550Z,96421.55
2018-06-19T12:46:59.677Z,96422.36
2018-06-19T12:49:46.105Z,96426.45
2018-06-19T12:52:32.445Z,96414.77
2018-06-19T12:56:22.502Z,96407.98
2018-06-19T12:58:51.626Z,96401.94
2018-06-19T13:01:20.757Z,96416.52
2018-06-19T13:04:07.085Z,96408.60
2018-06-19T13:06:37.263Z,96396.00
2018-06-19T13:09:08.629Z,96396.97
2018-06-19T13:11:37.819Z,96400.30
2018-06-19T13:14:24.399Z,96404.08
2018-06-19T13:17:10.833Z,96400.59
2018-06-19T13:19:57.434Z,96399.05
2018-06-19T13:22:26.728Z,96394.14
2018-06-19T13:24:55.949Z,96399.24
2018-06-19T13:27:25.074Z,96390.70
2018-06-19T13:30:11.789Z,96387.80
2018-06-19T13:32:40.993Z,96389.03
2018-06-19T13:35:10.121Z,96386.50
2018-06-19T13:37:39.246Z,96389.31
2018-06-19T13:41:24.777Z,96384.78
2018-06-19T13:44:12.821Z,96385.44
2018-06-19T13:46:42.306Z,96372.55
2018-06-19T13:49:11.453Z,96380.86
2018-06-19T13:51:40.585Z,96374.83
2018-06-19T13:54:09.730Z,96376.60
2018-06-19T13:57:08.185Z,96373.97
2018-06-19T13:59:37.517Z,96370.80
2018-06-19T14:02:06.861Z,96369.57
2018-06-19T14:04:36.012Z,96368.50
2018-06-19T14:07:06.319Z,96375.38
2018-06-19T14:09:52.721Z,96371.84
2018-06-19T14:13:13.839Z,96370.03
2018-06-19T14:15:49.983Z,96365.75
2018-06-19T14:18:20.741Z,96366.80
2018-06-19T14:20:49.860Z,96359.84
2018-06-19T14:23:18.989Z,96356.72
2018-06-19T14:25:48.129Z,96356.63
2018-06-19T14:28:17.257Z,96357.31
2018-06-19T14:30:46.389Z,96360.20
2018-06-19T14:33:15.521Z,96355.23
2018-06-19T14:35:44.682Z,96359.24
2018-06-19T14:38:13.824Z,96356.27
2018-06-19T14:40:42.945Z,96354.97
2018-06-19T14:43:12.075Z,96339.51
2018-06-19T14:45:41.215Z,96347.45
2018-06-19T14:48:10.321Z,96356.89
2018-06-19T14:50:39.501Z,96346.45
2018-06-19T14:53:08.609Z,96343.34
2018-06-19T14:55:37.737Z,96343.77
2018-06-19T14:58:06.891Z,96340.45
2018-06-19T15:00:36.021Z,96337.94
2018-06-19T15:03:05.158Z,96335.35
2018-06-19T15:05:34.373Z,96336.79
2018-06-19T15:08:03.509Z,96332.07
2018-06-19T15:10:32.629Z,96330.12
2018-06-19T15:13:01.991Z,96328.27
2018-06-19T15:15:31.092Z,96329.96
2018-06-19T15:18:00.209Z,96327.68
2018-06-19T15:20:29.476Z,96327.58
2018-06-19T15:22:58.588Z,96338.20
2018-06-19T15:25:27.760Z,96333.51
2018-06-19T15:27:56.873Z,96332.44
2018-06-19T15:30:25.993Z,96333.64
2018-06-19T15:32:55.125Z,96328.15
2018-06-19T15:35:24.273Z,96332.92
2018-06-19T15:37:53.410Z,96326.81
2018-06-19T15:40:22.551Z,96330.09
2018-06-19T15:42:51.673Z,96324.31
2018-06-19T15:45:21.017Z,96321.95
2018-06-19T15:47:50.277Z,96320.52
2018-06-19T15:50:19.392Z,96318.34
2018-06-19T15:52:48.512Z,96315.41
2018-06-19T15:55:17.636Z,96322.36
2018-06-19T15:57:46.759Z,96320.64
2018-06-19T16:00:15.889Z,96317.30
2018-06-19T16:02:45.010Z,96321.75
2018-06-19T16:05:14.140Z,96317.14
2018-06-19T16:07:48.917Z,96319.41
2018-06-19T16:10:18.068Z,96312.76
2018-06-19T16:12:47.256Z,96318.34
2018-06-19T16:15:16.401Z,96325.88
2018-06-19T16:17:45.552Z,96316.98
2018-06-19T16:20:14.676Z,96321.78
2018-06-19T16:22:43.804Z,96319.06
2018-06-19T16:25:12.941Z,96319.25
2018-06-19T16:27:42.069Z,96319.09
2018-06-19T16:30:11.199Z,96313.05
2018-06-19T16:32:40.319Z,96319.72
2018-06-19T16:35:09.484Z,96325.63
2018-06-19T16:37:38.662Z,96317.66
2018-06-19T16:40:07.826Z,96315.33
2018-06-19T16:42:36.956Z,96316.85
2018-06-19T16:45:06.173Z,96315.00
2018-06-19T16:47:35.075Z,96318.38
2018-06-19T16:50:04.353Z,96317.07
2018-06-19T16:52:33.477Z,96318.72
2018-06-19T16:55:03.137Z,96321.52
2018-06-19T16:57:32.772Z,96311.36
2018-06-19T17:00:02.266Z,96311.92
2018-06-19T17:02:31.658Z,96319.45
2018-06-19T17:05:00.896Z,96315.25
2018-06-19T17:07:30.430Z,96316.47
2018-06-19T17:09:59.573Z,96319.98
2018-06-19T17:12:28.759Z,96317.02
2018-06-19T17:14:57.886Z,96326.02
2018-06-19T17:17:27.061Z,96320.95
2018-06-19T17:19:56.266Z,96317.05
2018-06-19T17:22:25.452Z,96319.14
2018-06-19T17:24:54.578Z,96323.77
2018-06-19T17:27:23.797Z,96328.63
2018-06-19T17:29:52.989Z,96329.11
2018-06-19T17:32:21.936Z,96327.81
2018-06-19T17:34:50.940Z,96325.63
2018-06-19T17:37:20.129Z,96326.25
2018-06-19T17:39:49.337Z,96323.55
2018-06-19T17:42:18.482Z,96319.03
2018-06-19T17:44:47.620Z,96317.06
2018-06-19T17:47:16.761Z,96317.72
2018-06-19T17:49:45.905Z,96321.58
2018-06-19T17:52:15.207Z,96320.33
2018-06-19T17:54:44.365Z,96320.92
2018-06-19T17:57:13.476Z,96324.28
2018-06-19T17:59:42.752Z,96321.35
2018-06-19T18:02:11.881Z,96318.72
2018-06-19T18:04:41.056Z,96322.22
2018-06-19T18:07:10.189Z,96315.36
2018-06-19T18:09:39.325Z,96315.50
2018-06-19T18:12:08.716Z,96315.29
2018-06-19T18:14:37.853Z,96310.55
2018-06-19T18:17:06.973Z,96315.84
2018-06-19T18:19:36.118Z,96312.33
2018-06-19T18:22:05.285Z,96309.11
2018-06-19T18:24:34.414Z,96311.89
2018-06-19T18:27:03.573Z,96312.94
2018-06-19T18:29:32.717Z,96314.32
2018-06-19T18:32:01.862Z,96312.02
2018-06-19T18:34:30.993Z,96310.16
2018-06-19T18:37:00.149Z,96313.46
2018-06-19T18:39:29.368Z,96320.87
2018-06-19T18:41:58.509Z,96320.91
2018-06-19T18:44:27.693Z,96320.78
2018-06-19T18:46:56.967Z,96318.16
2018-06-19T18:49:26.889Z,96318.03
2018-06-19T18:51:56.173Z,96323.29
2018-06-19T18:54:25.513Z,96323.60
2018-06-19T18:56:54.669Z,96319.62
2018-06-19T18:59:23.889Z,96314.86
2018-06-19T19:01:53.104Z,96320.98
2018-06-19T19:04:22.260Z,96327.28
2018-06-19T19:06:51.431Z,96322.52
2018-06-19T19:09:20.557Z,96327.55
2018-06-19T19:11:49.785Z,96331.43
2018-06-19T19:14:18.946Z,96335.87
2018-06-19T19:16:53.345Z,96335.23
2018-06-19T19:19:24.514Z,96335.12
2018-06-19T19:21:54.572Z,96342.27
2018-06-19T19:24:23.819Z,96343.86
2018-06-19T19:26:58.196Z,96337.77
2018-06-19T19:29:32.700Z,96346.58
2018-06-19T19:32:01.831Z,96340.91
2018-06-19T19:34:31.181Z,96349.48
2018-06-19T19:37:05.873Z,96347.43
2018-06-19T19:39:35.105Z,96342.64
2018-06-19T19:42:04.241Z,96344.89
2018-06-19T19:44:33.403Z,96351.72
2018-06-19T19:47:07.894Z,96352.06
2018-06-19T19:49:37.131Z,96351.05
2018-06-19T19:52:06.255Z,96356.75
2018-06-19T19:54:35.654Z,96354.14
2018-06-19T19:57:10.105Z,96359.06
2018-06-19T19:59:39.259Z,96357.20
2018-06-19T20:02:08.485Z,96359.13
2018-06-19T20:04:37.633Z,96354.86
2018-06-19T20:07:06.817Z,96355.16
2018-06-19T20:09:35.991Z,96354.14
2018-06-19T20:12:05.253Z,96350.11
2018-06-19T20:14:34.394Z,96352.34
2018-06-19T20:17:03.616Z,96356.44
2018-06-19T20:19:32.711Z,96355.13
2018-06-19T20:22:01.898Z,96358.71
2018-06-19T20:24:31.017Z,96357.14
2018-06-19T20:27:00.418Z,96352.30
2018-06-19T20:29:29.613Z,96353.98
2018-06-19T20:31:58.822Z,96351.88
2018-06-19T20:34:28.027Z,96358.69
2018-06-19T20:36:57.155Z,96355.70
2018-06-19T20:39:26.338Z,96363.12
2018-06-19T20:41:55.796Z,96363.96
2018-06-19T20:44:24.965Z,96359.68
2018-06-19T20:46:54.093Z,96361.30
2018-06-19T20:49:23.441Z,96358.92
2018-06-19T20:51:52.749Z,96361.09
2018-06-19T20:54:22.021Z,96356.81
2018-06-19T20:56:51.190Z,96361.42
2018-06-19T20:59:20.459Z,96366.30
2018-06-19T21:01:49.745Z,96361.94
2018-06-19T21:04:18.933Z,96356.18
2018-06-19T21:06:48.157Z,96359.63
2018-06-19T21:09:17.362Z,96355.04
2018-06-19T21:11:46.598Z,96362.60
2018-06-19T21:14:15.774Z,96363.66
2018-06-19T21:16:44.953Z,96359.38
2018-06-19T21:19:14.434Z,96362.60
2018-06-19T21:21:43.732Z,96365.05
2018-06-19T21:24:12.970Z,96367.81
2018-06-19T21:26:42.214Z,96361.28
2018-06-19T21:29:11.402Z,96366.19
2018-06-19T21:31:40.565Z,96368.36
2018-06-19T21:34:09.740Z,96372.67
2018-06-19T21:36:38.990Z,96368.09
2018-06-19T21:39:10.118Z,96364.80
2018-06-19T21:41:39.249Z,96366.73
2018-06-19T21:44:08.453Z,96360.80
2018-06-19T21:46:37.589Z,96366.52
2018-06-19T21:49:06.701Z,96359.30
2018-06-19T21:51:35.921Z,96365.79
2018-06-19T21:54:05.049Z,96359.58
2018-06-19T21:56:34.390Z,96356.11
2018-06-19T21:59:03.509Z,96356.70
2018-06-19T22:01:32.625Z,96356.46
2018-06-19T22:04:01.760Z,96358.66
2018-06-19T22:06:30.889Z,96359.69
2018-06-19T22:09:01.037Z,96359.22
2018-06-19T22:11:30.159Z,96360.88
2018-06-19T22:13:59.400Z,96357.89
2018-06-19T22:16:28.518Z,96353.31
2018-06-19T22:18:57.645Z,96358.84
2018-06-19T22:21:26.787Z,96360.77
2018-06-19T22:23:56.077Z,96360.78
2018-06-19T22:26:25.197Z,96364.36
2018-06-19T22:28:54.370Z,96359.21
2018-06-19T22:31:23.597Z,96361.11
2018-06-19T22:33:52.713Z,96357.64
2018-06-19T22:36:21.828Z,96356.57
2018-06-19T22:38:50.945Z,96355.81
2018-06-19T22:41:20.082Z,96355.30
2018-06-19T22:43:49.213Z,96353.40
2018-06-19T22:46:18.333Z,96350.69
2018-06-19T22:48:47.496Z,96347.19
2018-06-19T22:51:16.642Z,96352.88
2018-06-19T22:53:45.772Z,96352.92
2018-06-19T22:56:14.908Z,96349.70
2018-06-19T22:58:44.039Z,96353.27
2018-06-19T23:01:13.329Z,96354.64
2018-06-19T23:03:42.447Z,96350.34
2018-06-19T23:06:11.558Z,96344.42
2018-06-19T23:08:40.681Z,96342.55
2018-06-19T23:11:09.825Z,96338.50
2018-06-19T23:13:38.958Z,96341.21
2018-06-19T23:16:08.085Z,96351.77
2018-06-19T23:18:37.218Z,96347.76
2018-06-19T23:21:06.353Z,96349.67
2018-06-19T23:23:35.526Z,96347.26
2018-06-19T23:26:04.657Z,96348.09
2018-06-19T23:28:33.790Z,96348.63
2018-06-19T23:31:02.905Z,96344.88
2018-06-19T23:33:32.037Z,96346.56
2018-06-19T23:36:01.189Z,96345.70
2018-06-19T23:38:30.326Z,96351.41
2018-06-19T23:40:59.457Z,96349.77
2018-06-19T23:43:28.593Z,96340.31
2018-06-19T23:45:57.717Z,96342.79
2018-06-19T23:48:26.881Z,96342.79
2018-06-19T23:50:56.043Z,96343.34
2018-06-19T23:53:25.166Z,96337.72
2018-06-19T23:55:54.289Z,96342.09
2018-06-19T23:58:23.408Z,96336.09
